createdAt,value
2019-05-22T00:00:33.537Z,15.19
2019-05-22T00:01:33.560Z,15.20
2019-05-22T00:02:33.507Z,15.15
2019-05-22T00:03:33.494Z,15.12
2019-05-22T00:04:33.507Z,15.08
2019-05-22T00:05:33.465Z,15.03
2019-05-22T00:06:33.468Z,14.99
2019-05-22T00:07:33.445Z,14.93
2019-05-22T00:08:33.460Z,14.91
2019-05-22T00:09:33.438Z,14.94
2019-05-22T00:10:33.409Z,14.94
2019-05-22T00:11:33.405Z,14.98
2019-05-22T00:12:45.729Z,14.95
2019-05-22T00:13:34.388Z,14.86
2019-05-22T00:14:33.415Z,14.74
2019-05-22T00:15:43.633Z,14.68
2019-05-22T00:16:33.353Z,14.69
2019-05-22T00:17:33.346Z,14.74
2019-05-22T00:18:33.336Z,14.81
2019-05-22T00:19:33.322Z,14.84
2019-05-22T00:20:33.315Z,14.86
2019-05-22T00:21:33.306Z,14.86
2019-05-22T00:22:33.295Z,14.86
2019-05-22T00:23:33.288Z,14.87
2019-05-22T00:24:33.324Z,14.90
2019-05-22T00:25:33.440Z,14.95
2019-05-22T00:26:33.234Z,14.98
2019-05-22T00:27:33.234Z,14.99
2019-05-22T00:28:33.227Z,15.01
2019-05-22T00:29:33.215Z,15.02
2019-05-22T00:30:33.194Z,14.99
2019-05-22T00:31:33.207Z,14.95
2019-05-22T00:32:33.182Z,14.94
2019-05-22T00:33:36.194Z,14.95
2019-05-22T00:34:33.168Z,15.01
2019-05-22T00:35:33.136Z,15.01
2019-05-22T00:36:33.148Z,15.02
2019-05-22T00:37:33.124Z,15.01
2019-05-22T00:38:33.120Z,14.98
2019-05-22T00:39:33.099Z,15.01
2019-05-22T00:40:33.086Z,15.02
2019-05-22T00:41:33.087Z,14.99
2019-05-22T00:42:33.089Z,14.98
2019-05-22T00:43:33.066Z,14.98
2019-05-22T00:44:33.044Z,14.94
2019-05-22T00:45:33.035Z,14.93
2019-05-22T00:46:43.606Z,14.93
2019-05-22T00:47:33.064Z,14.94
2019-05-22T00:48:32.995Z,14.90
2019-05-22T00:49:32.986Z,14.88
2019-05-22T00:50:32.975Z,14.87
2019-05-22T00:51:32.965Z,14.88
2019-05-22T00:52:32.987Z,14.84
2019-05-22T00:53:32.946Z,14.80
2019-05-22T00:54:32.936Z,14.75
2019-05-22T00:55:32.937Z,14.72
2019-05-22T00:56:32.920Z,14.67
2019-05-22T00:57:32.905Z,14.64
2019-05-22T00:58:32.895Z,14.60
2019-05-22T00:59:32.877Z,14.60
2019-05-22T01:00:34.854Z,14.62
2019-05-22T01:01:32.857Z,14.64
2019-05-22T01:02:32.899Z,14.67
2019-05-22T01:03:32.827Z,14.69
2019-05-22T01:04:32.836Z,14.67
2019-05-22T01:05:32.819Z,14.65
2019-05-22T01:06:32.820Z,14.61
2019-05-22T01:07:32.789Z,14.57
2019-05-22T01:08:32.817Z,14.53
2019-05-22T01:09:32.776Z,14.56
2019-05-22T01:10:32.760Z,14.60
2019-05-22T01:11:32.761Z,14.64
2019-05-22T01:12:32.743Z,14.64
2019-05-22T01:13:32.718Z,14.68
2019-05-22T01:14:42.336Z,14.69
2019-05-22T01:15:33.714Z,14.68
2019-05-22T01:16:32.699Z,14.68
2019-05-22T01:17:43.994Z,14.68
2019-05-22T01:18:32.675Z,14.71
2019-05-22T01:19:32.705Z,14.71
2019-05-22T01:20:32.657Z,14.71
2019-05-22T01:21:32.644Z,14.72
2019-05-22T01:22:32.636Z,14.71
2019-05-22T01:23:32.621Z,14.69
2019-05-22T01:24:32.628Z,14.67
2019-05-22T01:25:32.618Z,14.67
2019-05-22T01:26:32.588Z,14.61
2019-05-22T01:27:32.584Z,14.57
2019-05-22T01:28:32.556Z,14.60
2019-05-22T01:29:32.558Z,14.62
2019-05-22T01:30:32.565Z,14.62
2019-05-22T01:31:32.568Z,14.64
2019-05-22T01:32:32.533Z,14.61
2019-05-22T01:33:32.520Z,14.56
2019-05-22T01:34:32.495Z,14.53
2019-05-22T01:35:32.499Z,14.50
2019-05-22T01:36:32.499Z,14.46
2019-05-22T01:37:32.510Z,14.43
2019-05-22T01:38:32.459Z,14.44
2019-05-22T01:39:32.449Z,14.44
2019-05-22T01:40:32.453Z,14.42
2019-05-22T01:41:32.433Z,14.38
2019-05-22T01:42:32.430Z,14.37
2019-05-22T01:43:32.442Z,14.37
2019-05-22T01:44:32.386Z,14.38
2019-05-22T01:45:32.381Z,14.39
2019-05-22T01:46:32.380Z,14.42
2019-05-22T01:47:32.361Z,14.44
2019-05-22T01:48:43.997Z,14.43
2019-05-22T01:49:32.340Z,14.49
2019-05-22T01:50:32.328Z,14.50
2019-05-22T01:51:32.317Z,14.49
2019-05-22T01:52:32.297Z,14.52
2019-05-22T01:53:33.003Z,14.52
2019-05-22T01:54:32.290Z,14.54
2019-05-22T01:55:32.272Z,14.52
2019-05-22T01:56:32.259Z,14.53
2019-05-22T01:57:32.249Z,14.52
2019-05-22T01:58:32.239Z,14.50
2019-05-22T01:59:32.259Z,14.46
2019-05-22T02:00:32.220Z,14.43
2019-05-22T02:01:32.223Z,14.38
2019-05-22T02:02:32.192Z,14.38
2019-05-22T02:03:32.193Z,14.38
2019-05-22T02:04:32.169Z,14.35
2019-05-22T02:05:32.172Z,14.39
2019-05-22T02:06:32.171Z,14.43
2019-05-22T02:07:32.140Z,14.46
2019-05-22T02:08:32.141Z,14.49
2019-05-22T02:09:32.145Z,14.53
2019-05-22T02:10:32.135Z,14.50
2019-05-22T02:11:32.091Z,14.37
2019-05-22T02:12:32.082Z,14.39
2019-05-22T02:13:32.084Z,14.38
2019-05-22T02:14:32.062Z,14.37
2019-05-22T02:15:32.065Z,14.38
2019-05-22T02:16:32.152Z,14.43
2019-05-22T02:17:32.030Z,14.46
2019-05-22T02:18:32.025Z,14.47
2019-05-22T02:19:42.085Z,14.44
2019-05-22T02:20:32.002Z,14.44
2019-05-22T02:21:32.029Z,14.44
2019-05-22T02:22:31.985Z,14.46
2019-05-22T02:23:31.975Z,14.46
2019-05-22T02:24:31.970Z,14.43
2019-05-22T02:25:31.942Z,14.37
2019-05-22T02:26:31.933Z,14.38
2019-05-22T02:27:31.971Z,14.44
2019-05-22T02:28:31.903Z,14.46
2019-05-22T02:29:31.905Z,14.47
2019-05-22T02:30:31.884Z,14.43
2019-05-22T02:31:31.874Z,14.43
2019-05-22T02:32:31.874Z,14.47
2019-05-22T02:33:31.854Z,14.43
2019-05-22T02:34:31.847Z,14.47
2019-05-22T02:35:31.839Z,14.52
2019-05-22T02:36:31.827Z,14.56
2019-05-22T02:37:31.817Z,14.50
2019-05-22T02:38:31.806Z,14.49
2019-05-22T02:39:31.786Z,14.49
2019-05-22T02:40:31.802Z,14.47
2019-05-22T02:41:31.778Z,14.44
2019-05-22T02:42:31.754Z,14.46
2019-05-22T02:43:31.768Z,14.50
2019-05-22T02:44:31.749Z,14.52
2019-05-22T02:45:31.755Z,14.53
2019-05-22T02:46:31.706Z,14.53
2019-05-22T02:47:31.701Z,14.52
2019-05-22T02:48:31.697Z,14.50
2019-05-22T02:49:31.676Z,14.54
2019-05-22T02:50:41.889Z,14.54
2019-05-22T02:51:31.681Z,14.56
2019-05-22T02:52:31.645Z,14.60
2019-05-22T02:53:31.659Z,14.64
2019-05-22T02:54:31.667Z,14.62
2019-05-22T02:55:31.626Z,14.64
2019-05-22T02:56:31.613Z,14.61
2019-05-22T02:57:31.617Z,14.62
2019-05-22T02:58:31.584Z,14.64
2019-05-22T02:59:31.629Z,14.65
2019-05-22T03:00:31.578Z,14.64
2019-05-22T03:01:31.556Z,14.62
2019-05-22T03:02:31.549Z,14.57
2019-05-22T03:03:31.560Z,14.57
2019-05-22T03:04:31.518Z,14.56
2019-05-22T03:05:31.515Z,14.54
2019-05-22T03:06:31.497Z,14.49
2019-05-22T03:07:31.558Z,14.52
2019-05-22T03:08:31.476Z,14.53
2019-05-22T03:09:31.467Z,14.46
2019-05-22T03:10:31.480Z,14.43
2019-05-22T03:11:34.968Z,14.44
2019-05-22T03:12:31.432Z,14.47
2019-05-22T03:13:31.422Z,14.52
2019-05-22T03:14:31.443Z,14.54
2019-05-22T03:15:31.420Z,14.56
2019-05-22T03:16:31.389Z,14.56
2019-05-22T03:17:31.425Z,14.54
2019-05-22T03:18:31.371Z,14.53
2019-05-22T03:19:31.360Z,14.54
2019-05-22T03:20:31.359Z,14.54
2019-05-22T03:21:41.638Z,14.54
2019-05-22T03:22:31.384Z,14.54
2019-05-22T03:23:31.322Z,14.50
2019-05-22T03:24:31.319Z,14.47
2019-05-22T03:25:31.296Z,14.47
2019-05-22T03:26:31.718Z,14.49
2019-05-22T03:27:31.280Z,14.49
2019-05-22T03:28:31.283Z,14.44
2019-05-22T03:29:31.249Z,14.38
2019-05-22T03:30:32.186Z,14.38
2019-05-22T03:31:31.248Z,14.32
2019-05-22T03:32:31.219Z,14.27
2019-05-22T03:33:32.168Z,14.24
2019-05-22T03:34:31.236Z,14.24
2019-05-22T03:35:31.183Z,14.25
2019-05-22T03:36:31.179Z,14.25
2019-05-22T03:37:31.221Z,14.28
2019-05-22T03:38:31.151Z,14.29
2019-05-22T03:39:31.668Z,14.32
2019-05-22T03:40:31.131Z,14.32
2019-05-22T03:41:31.129Z,14.37
2019-05-22T03:42:31.099Z,14.35
2019-05-22T03:43:31.110Z,14.38
2019-05-22T03:44:31.087Z,14.39
2019-05-22T03:45:31.072Z,14.39
2019-05-22T03:46:31.091Z,14.38
2019-05-22T03:47:31.055Z,14.39
2019-05-22T03:48:31.089Z,14.39
2019-05-22T03:49:31.422Z,14.39
2019-05-22T03:50:31.744Z,14.44
2019-05-22T03:51:31.029Z,14.46
2019-05-22T03:52:41.729Z,14.49
2019-05-22T03:53:31.007Z,14.50
2019-05-22T03:54:31.039Z,14.53
2019-05-22T03:55:31.671Z,14.49
2019-05-22T03:56:30.949Z,14.49
2019-05-22T03:57:31.022Z,14.49
2019-05-22T03:58:30.953Z,14.49
2019-05-22T03:59:30.932Z,14.46
2019-05-22T04:00:30.971Z,14.49
2019-05-22T04:01:30.922Z,14.52
2019-05-22T04:02:31.006Z,14.53
2019-05-22T04:03:30.878Z,14.44
2019-05-22T04:04:30.930Z,14.29
2019-05-22T04:05:30.875Z,14.31
2019-05-22T04:06:30.842Z,14.32
2019-05-22T04:07:30.849Z,14.38
2019-05-22T04:08:30.962Z,14.38
2019-05-22T04:09:30.820Z,14.42
2019-05-22T04:10:30.810Z,14.44
2019-05-22T04:11:30.805Z,14.44
2019-05-22T04:12:30.892Z,14.38
2019-05-22T04:13:30.792Z,14.35
2019-05-22T04:14:30.750Z,14.38
2019-05-22T04:15:30.765Z,14.43
2019-05-22T04:16:30.754Z,14.47
2019-05-22T04:17:30.750Z,14.50
2019-05-22T04:18:30.717Z,14.50
2019-05-22T04:19:47.491Z,14.49
2019-05-22T04:20:31.705Z,14.46
2019-05-22T04:21:30.705Z,14.42
2019-05-22T04:22:30.686Z,14.42
2019-05-22T04:23:41.039Z,14.43
2019-05-22T04:24:30.737Z,14.44
2019-05-22T04:25:30.632Z,14.47
2019-05-22T04:26:30.710Z,14.47
2019-05-22T04:27:30.627Z,14.53
2019-05-22T04:28:30.625Z,14.57
2019-05-22T04:29:30.607Z,14.64
2019-05-22T04:30:30.597Z,14.68
2019-05-22T04:31:30.668Z,14.68
2019-05-22T04:32:30.767Z,14.67
2019-05-22T04:33:30.571Z,14.67
2019-05-22T04:34:30.554Z,14.68
2019-05-22T04:35:30.533Z,14.62
2019-05-22T04:36:30.526Z,14.65
2019-05-22T04:37:30.558Z,14.71
2019-05-22T04:38:30.504Z,14.78
2019-05-22T04:39:30.485Z,14.83
2019-05-22T04:40:30.486Z,14.87
2019-05-22T04:41:30.457Z,14.94
2019-05-22T04:42:30.455Z,14.99
2019-05-22T04:43:30.445Z,15.03
2019-05-22T04:44:30.436Z,15.03
2019-05-22T04:45:30.426Z,15.05
2019-05-22T04:46:30.413Z,15.08
2019-05-22T04:47:30.435Z,15.11
2019-05-22T04:48:30.394Z,15.11
2019-05-22T04:49:30.376Z,15.12
2019-05-22T04:50:30.363Z,15.11
2019-05-22T04:51:30.407Z,15.08
2019-05-22T04:52:30.365Z,15.09
2019-05-22T04:53:30.389Z,15.13
2019-05-22T04:54:41.099Z,15.19
2019-05-22T04:55:30.317Z,15.24
2019-05-22T04:56:30.312Z,15.26
2019-05-22T04:57:30.285Z,15.28
2019-05-22T04:58:30.285Z,15.27
2019-05-22T04:59:30.351Z,15.28
2019-05-22T05:00:30.254Z,15.28
2019-05-22T05:01:30.246Z,15.31
2019-05-22T05:02:30.237Z,15.36
2019-05-22T05:03:30.224Z,15.39
2019-05-22T05:04:30.213Z,15.38
2019-05-22T05:05:30.255Z,15.39
2019-05-22T05:06:30.192Z,15.39
2019-05-22T05:07:30.187Z,15.41
2019-05-22T05:08:30.167Z,15.45
2019-05-22T05:09:30.168Z,15.48
2019-05-22T05:10:30.160Z,15.46
2019-05-22T05:11:30.148Z,15.46
2019-05-22T05:12:30.128Z,15.51
2019-05-22T05:13:30.116Z,15.52
2019-05-22T05:14:30.185Z,15.56
2019-05-22T05:15:30.098Z,15.59
2019-05-22T05:16:30.090Z,15.61
2019-05-22T05:17:30.078Z,15.63
2019-05-22T05:18:30.068Z,15.66
2019-05-22T05:19:30.070Z,15.66
2019-05-22T05:20:30.064Z,15.70
2019-05-22T05:21:30.070Z,15.70
2019-05-22T05:22:30.019Z,15.72
2019-05-22T05:23:30.009Z,15.75
2019-05-22T05:24:30.002Z,15.75
2019-05-22T05:25:40.127Z,15.76
2019-05-22T05:26:29.979Z,15.68
2019-05-22T05:27:29.960Z,15.72
2019-05-22T05:28:29.949Z,15.75
2019-05-22T05:29:29.959Z,15.76
2019-05-22T05:30:29.941Z,15.78
2019-05-22T05:31:29.992Z,15.79
2019-05-22T05:32:29.935Z,15.81
2019-05-22T05:33:29.911Z,15.84
2019-05-22T05:34:29.889Z,15.82
2019-05-22T05:35:29.883Z,15.84
2019-05-22T05:36:29.871Z,15.85
2019-05-22T05:37:30.751Z,15.84
2019-05-22T05:38:29.849Z,15.85
2019-05-22T05:39:29.834Z,15.86
2019-05-22T05:40:29.833Z,15.89
2019-05-22T05:41:29.813Z,15.92
2019-05-22T05:42:29.800Z,15.96
2019-05-22T05:43:29.804Z,16.00
2019-05-22T05:44:29.782Z,16.03
2019-05-22T05:45:29.790Z,15.99
2019-05-22T05:46:29.767Z,15.94
2019-05-22T05:47:29.742Z,15.88
2019-05-22T05:48:29.756Z,15.88
2019-05-22T05:49:29.736Z,15.88
2019-05-22T05:50:38.867Z,15.88
2019-05-22T05:51:30.764Z,15.93
2019-05-22T05:52:29.708Z,15.94
2019-05-22T05:53:29.709Z,15.99
2019-05-22T05:54:30.432Z,16.01
2019-05-22T05:55:29.667Z,16.04
2019-05-22T05:56:39.871Z,16.07
2019-05-22T05:57:29.658Z,16.09
2019-05-22T05:58:30.018Z,16.12
2019-05-22T05:59:29.633Z,16.16
2019-05-22T06:00:29.707Z,16.18
2019-05-22T06:01:29.608Z,16.20
2019-05-22T06:02:29.608Z,16.22
2019-05-22T06:03:29.591Z,16.14
2019-05-22T06:04:34.562Z,16.15
2019-05-22T06:05:30.556Z,16.15
2019-05-22T06:06:29.558Z,16.11
2019-05-22T06:07:29.537Z,16.09
2019-05-22T06:08:29.540Z,16.09
2019-05-22T06:09:29.530Z,16.12
2019-05-22T06:10:29.570Z,16.15
2019-05-22T06:11:29.487Z,16.16
2019-05-22T06:12:29.489Z,16.18
2019-05-22T06:13:29.480Z,16.16
2019-05-22T06:14:29.471Z,16.18
2019-05-22T06:15:45.607Z,16.22
2019-05-22T06:16:30.452Z,16.23
2019-05-22T06:17:29.439Z,16.25
2019-05-22T06:18:29.410Z,16.25
2019-05-22T06:19:29.421Z,16.26
2019-05-22T06:20:29.429Z,16.25
2019-05-22T06:21:29.387Z,16.27
2019-05-22T06:22:29.383Z,16.26
2019-05-22T06:23:29.362Z,16.25
2019-05-22T06:24:29.367Z,16.22
2019-05-22T06:25:29.352Z,16.23
2019-05-22T06:26:29.351Z,16.26
2019-05-22T06:27:41.436Z,16.30
2019-05-22T06:28:29.324Z,16.31
2019-05-22T06:29:29.638Z,16.34
2019-05-22T06:30:29.282Z,16.38
2019-05-22T06:31:29.322Z,16.40
2019-05-22T06:32:29.261Z,16.37
2019-05-22T06:33:29.264Z,16.34
2019-05-22T06:34:29.243Z,16.31
2019-05-22T06:35:29.244Z,16.33
2019-05-22T06:36:29.226Z,16.30
2019-05-22T06:37:29.224Z,16.33
2019-05-22T06:38:29.206Z,16.34
2019-05-22T06:39:29.204Z,16.33
2019-05-22T06:40:29.187Z,16.27
2019-05-22T06:41:29.180Z,16.30
2019-05-22T06:42:29.167Z,16.26
2019-05-22T06:43:29.216Z,16.09
2019-05-22T06:44:29.157Z,16.09
2019-05-22T06:45:29.127Z,16.12
2019-05-22T06:46:29.127Z,16.18
2019-05-22T06:47:29.148Z,16.23
2019-05-22T06:48:29.103Z,16.31
2019-05-22T06:49:29.087Z,16.42
2019-05-22T06:50:29.075Z,16.56
2019-05-22T06:51:29.068Z,16.58
2019-05-22T06:52:29.056Z,16.60
2019-05-22T06:53:29.054Z,16.67
2019-05-22T06:54:29.025Z,16.70
2019-05-22T06:55:29.032Z,16.74
2019-05-22T06:56:29.018Z,16.80
2019-05-22T06:57:29.002Z,16.83
2019-05-22T06:58:40.923Z,16.86
2019-05-22T06:59:28.976Z,16.85
2019-05-22T07:00:28.967Z,16.83
2019-05-22T07:01:28.947Z,16.88
2019-05-22T07:02:28.944Z,16.89
2019-05-22T07:03:28.930Z,16.88
2019-05-22T07:04:28.933Z,16.89
2019-05-22T07:05:28.916Z,16.90
2019-05-22T07:06:29.655Z,16.89
2019-05-22T07:07:28.889Z,16.90
2019-05-22T07:08:28.905Z,16.89
2019-05-22T07:09:28.887Z,16.86
2019-05-22T07:10:28.879Z,16.89
2019-05-22T07:11:28.838Z,16.90
2019-05-22T07:12:28.840Z,16.90
2019-05-22T07:13:28.817Z,16.95
2019-05-22T07:14:28.814Z,16.99
2019-05-22T07:15:28.800Z,17.04
2019-05-22T07:16:28.813Z,17.08
2019-05-22T07:17:28.827Z,17.10
2019-05-22T07:18:28.820Z,17.10
2019-05-22T07:19:28.778Z,17.11
2019-05-22T07:20:28.763Z,17.15
2019-05-22T07:21:34.055Z,17.22
2019-05-22T07:22:29.732Z,17.25
2019-05-22T07:23:28.721Z,17.29
2019-05-22T07:24:28.720Z,17.33
2019-05-22T07:25:28.703Z,17.40
2019-05-22T07:26:28.809Z,17.44
2019-05-22T07:27:28.671Z,17.48
2019-05-22T07:28:28.662Z,17.50
2019-05-22T07:30:28.641Z,17.54
2019-05-22T07:31:28.645Z,17.57
2019-05-22T07:32:30.891Z,17.51
2019-05-22T07:33:28.629Z,17.51
2019-05-22T07:34:28.598Z,17.53
2019-05-22T07:35:44.155Z,17.53
2019-05-22T07:36:29.572Z,17.54
2019-05-22T07:37:28.575Z,17.55
2019-05-22T07:38:28.553Z,17.59
2019-05-22T07:39:28.552Z,17.59
2019-05-22T07:40:28.535Z,17.55
2019-05-22T07:41:28.510Z,17.55
2019-05-22T07:42:28.521Z,17.57
2019-05-22T07:43:28.503Z,17.57
2019-05-22T07:44:28.480Z,17.55
2019-05-22T07:45:28.473Z,17.57
2019-05-22T07:46:30.785Z,17.59
2019-05-22T07:47:28.476Z,17.59
2019-05-22T07:48:28.444Z,17.62
2019-05-22T07:49:28.440Z,17.62
2019-05-22T07:50:28.433Z,17.62
2019-05-22T07:51:28.424Z,17.63
2019-05-22T07:52:29.172Z,17.64
2019-05-22T07:53:28.391Z,17.69
2019-05-22T07:54:28.372Z,17.71
2019-05-22T07:55:28.376Z,17.76
2019-05-22T07:56:28.362Z,17.81
2019-05-22T07:57:28.351Z,17.81
2019-05-22T07:58:28.342Z,17.81
2019-05-22T07:59:28.313Z,17.84
2019-05-22T08:00:39.310Z,17.88
2019-05-22T08:01:28.303Z,17.94
2019-05-22T08:02:28.291Z,17.99
2019-05-22T08:03:28.282Z,18.04
2019-05-22T08:04:28.272Z,18.10
2019-05-22T08:05:28.264Z,18.17
2019-05-22T08:06:28.255Z,18.19
2019-05-22T08:07:28.255Z,18.33
2019-05-22T08:08:37.495Z,18.43
2019-05-22T08:09:28.212Z,18.55
2019-05-22T08:10:28.205Z,18.59
2019-05-22T08:11:28.197Z,18.52
2019-05-22T08:12:28.231Z,18.46
2019-05-22T08:13:28.237Z,18.46
2019-05-22T08:14:28.168Z,18.52
2019-05-22T08:15:28.157Z,18.62
2019-05-22T08:16:28.149Z,18.72
2019-05-22T08:17:28.123Z,18.82
2019-05-22T08:18:28.145Z,18.90
2019-05-22T08:19:28.110Z,18.79
2019-05-22T08:20:28.109Z,18.80
2019-05-22T08:21:28.084Z,18.79
2019-05-22T08:22:28.075Z,18.79
2019-05-22T08:23:28.098Z,18.65
2019-05-22T08:24:28.059Z,18.59
2019-05-22T08:25:28.038Z,18.59
2019-05-22T08:26:28.034Z,18.64
2019-05-22T08:27:28.015Z,18.80
2019-05-22T08:28:28.039Z,18.94
2019-05-22T08:29:28.005Z,19.08
2019-05-22T08:30:27.993Z,19.20
2019-05-22T08:31:38.596Z,19.29
2019-05-22T08:32:27.978Z,19.35
2019-05-22T08:33:28.000Z,19.43
2019-05-22T08:34:27.950Z,19.46
2019-05-22T08:35:27.974Z,19.47
2019-05-22T08:36:27.931Z,19.54
2019-05-22T08:37:28.023Z,19.63
2019-05-22T08:38:27.941Z,19.76
2019-05-22T08:39:27.919Z,19.76
2019-05-22T08:40:27.886Z,19.69
2019-05-22T08:41:27.868Z,19.66
2019-05-22T08:42:27.849Z,19.69
2019-05-22T08:43:27.890Z,19.75
2019-05-22T08:44:27.853Z,19.78
2019-05-22T08:45:28.366Z,19.83
2019-05-22T08:46:27.808Z,19.88
2019-05-22T08:47:27.922Z,19.93
2019-05-22T08:48:27.811Z,19.97
2019-05-22T08:49:27.792Z,20.00
2019-05-22T08:50:27.789Z,20.08
2019-05-22T08:51:27.762Z,20.13
2019-05-22T08:52:27.757Z,20.20
2019-05-22T08:53:27.744Z,20.23
2019-05-22T08:54:27.740Z,20.27
2019-05-22T08:55:27.730Z,20.33
2019-05-22T08:56:27.733Z,20.38
2019-05-22T08:57:27.691Z,20.41
2019-05-22T08:58:27.721Z,20.43
2019-05-22T08:59:27.671Z,20.50
2019-05-22T09:00:27.668Z,20.58
2019-05-22T09:01:27.672Z,20.49
2019-05-22T09:02:38.391Z,20.46
2019-05-22T09:03:27.642Z,20.35
2019-05-22T09:04:27.625Z,20.30
2019-05-22T09:05:27.621Z,20.39
2019-05-22T09:06:27.646Z,20.43
2019-05-22T09:07:27.586Z,20.46
2019-05-22T09:08:27.575Z,20.47
2019-05-22T09:09:27.610Z,20.53
2019-05-22T09:10:27.569Z,20.64
2019-05-22T09:11:27.556Z,20.71
2019-05-22T09:12:27.581Z,20.80
2019-05-22T09:13:27.525Z,20.87
2019-05-22T09:14:27.516Z,20.93
2019-05-22T09:15:27.506Z,20.96
2019-05-22T09:16:27.497Z,21.02
2019-05-22T09:17:27.484Z,21.09
2019-05-22T09:18:27.483Z,21.13
2019-05-22T09:19:27.478Z,21.09
2019-05-22T09:20:27.455Z,21.02
2019-05-22T09:21:27.487Z,21.02
2019-05-22T09:22:40.237Z,20.89
2019-05-22T09:23:28.429Z,20.91
2019-05-22T09:24:27.536Z,20.83
2019-05-22T09:25:27.402Z,20.83
2019-05-22T09:26:27.392Z,20.86
2019-05-22T09:27:27.387Z,20.91
2019-05-22T09:28:29.588Z,21.04
2019-05-22T09:29:27.347Z,21.08
2019-05-22T09:30:27.329Z,21.14
2019-05-22T09:31:27.326Z,21.17
2019-05-22T09:32:27.307Z,21.16
2019-05-22T09:34:27.297Z,21.24
2019-05-22T09:35:27.286Z,21.36
2019-05-22T09:36:27.289Z,21.41
2019-05-22T09:37:27.256Z,21.36
2019-05-22T09:38:27.259Z,21.29
2019-05-22T09:39:27.332Z,21.27
2019-05-22T09:40:27.228Z,21.20
2019-05-22T09:41:27.221Z,21.17
2019-05-22T09:42:27.216Z,21.23
2019-05-22T09:43:27.201Z,21.32
2019-05-22T09:44:27.689Z,21.42
2019-05-22T09:45:27.190Z,21.53
2019-05-22T09:46:27.160Z,21.60
2019-05-22T09:47:27.161Z,21.63
2019-05-22T09:48:27.141Z,21.71
2019-05-22T09:49:27.176Z,21.63
2019-05-22T09:50:27.134Z,21.60
2019-05-22T09:51:27.120Z,21.57
2019-05-22T09:52:27.103Z,21.59
2019-05-22T09:53:27.090Z,21.66
2019-05-22T09:54:27.084Z,21.53
2019-05-22T09:55:27.082Z,21.57
2019-05-22T09:56:27.064Z,21.67
2019-05-22T09:57:27.055Z,21.72
2019-05-22T09:58:27.056Z,21.76
2019-05-22T09:59:27.031Z,21.78
2019-05-22T10:00:27.023Z,21.75
2019-05-22T10:01:26.993Z,21.76
2019-05-22T10:02:27.012Z,21.72
2019-05-22T10:03:27.002Z,21.72
2019-05-22T10:04:37.439Z,21.82
2019-05-22T10:05:26.981Z,21.94
2019-05-22T10:06:26.963Z,22.01
2019-05-22T10:07:26.943Z,22.01
2019-05-22T10:08:26.933Z,21.94
2019-05-22T10:09:26.921Z,21.97
2019-05-22T10:10:26.902Z,21.95
2019-05-22T10:11:26.927Z,21.95
2019-05-22T10:12:26.883Z,21.90
2019-05-22T10:13:29.185Z,21.90
2019-05-22T10:14:26.879Z,21.97
2019-05-22T10:15:27.331Z,22.07
2019-05-22T10:16:26.882Z,22.16
2019-05-22T10:17:26.844Z,22.27
2019-05-22T10:18:26.868Z,22.35
2019-05-22T10:19:26.824Z,22.47
2019-05-22T10:20:26.807Z,22.57
2019-05-22T10:21:26.807Z,22.59
2019-05-22T10:22:26.815Z,22.53
2019-05-22T10:23:26.798Z,22.59
2019-05-22T10:24:26.770Z,22.62
2019-05-22T10:25:26.779Z,22.59
2019-05-22T10:26:26.788Z,22.60
2019-05-22T10:27:26.796Z,22.65
2019-05-22T10:28:26.706Z,22.69
2019-05-22T10:29:26.707Z,22.69
2019-05-22T10:30:26.740Z,22.72
2019-05-22T10:31:26.667Z,22.74
2019-05-22T10:32:31.372Z,22.54
2019-05-22T10:33:27.771Z,22.41
2019-05-22T10:34:26.643Z,22.37
2019-05-22T10:35:36.884Z,22.28
2019-05-22T10:36:26.626Z,22.22
2019-05-22T10:37:26.618Z,22.29
2019-05-22T10:38:26.609Z,22.37
2019-05-22T10:39:26.601Z,22.46
2019-05-22T10:40:26.605Z,22.54
2019-05-22T10:41:26.583Z,22.53
2019-05-22T10:42:26.590Z,22.47
2019-05-22T10:43:26.568Z,22.43
2019-05-22T10:44:26.568Z,22.44
2019-05-22T10:45:26.578Z,22.44
2019-05-22T10:46:26.532Z,22.47
2019-05-22T10:47:26.504Z,22.53
2019-05-22T10:48:26.489Z,22.60
2019-05-22T10:49:26.492Z,22.60
2019-05-22T10:50:26.490Z,22.59
2019-05-22T10:51:26.476Z,22.52
2019-05-22T10:52:26.442Z,22.43
2019-05-22T10:53:33.468Z,22.39
2019-05-22T10:54:27.471Z,22.41
2019-05-22T10:55:26.424Z,22.49
2019-05-22T10:56:26.402Z,22.64
2019-05-22T10:57:26.435Z,22.77
2019-05-22T10:58:26.385Z,22.78
2019-05-22T10:59:26.385Z,22.82
2019-05-22T11:00:26.422Z,22.86
2019-05-22T11:01:26.369Z,22.92
2019-05-22T11:02:26.343Z,22.84
2019-05-22T11:03:26.331Z,22.80
2019-05-22T11:04:26.316Z,22.71
2019-05-22T11:05:26.346Z,22.74
2019-05-22T11:06:36.882Z,22.59
2019-05-22T11:07:26.279Z,22.59
2019-05-22T11:08:30.382Z,22.59
2019-05-22T11:09:27.268Z,22.65
2019-05-22T11:10:26.257Z,22.71
2019-05-22T11:11:26.261Z,22.69
2019-05-22T11:12:26.220Z,22.74
2019-05-22T11:13:26.287Z,22.82
2019-05-22T11:14:26.226Z,22.87
2019-05-22T11:15:26.235Z,22.89
2019-05-22T11:16:26.203Z,22.92
2019-05-22T11:17:26.183Z,22.96
2019-05-22T11:18:26.167Z,23.01
2019-05-22T11:19:26.165Z,23.07
2019-05-22T11:20:26.194Z,23.14
2019-05-22T11:21:26.147Z,23.14
2019-05-22T11:22:26.168Z,23.17
2019-05-22T11:23:26.115Z,23.20
2019-05-22T11:24:26.133Z,23.24
2019-05-22T11:25:26.096Z,23.23
2019-05-22T11:26:26.078Z,23.22
2019-05-22T11:27:26.067Z,23.19
2019-05-22T11:28:26.074Z,23.20
2019-05-22T11:29:26.054Z,23.17
2019-05-22T11:30:26.076Z,23.15
2019-05-22T11:31:26.032Z,23.22
2019-05-22T11:32:26.025Z,23.29
2019-05-22T11:33:26.021Z,23.34
2019-05-22T11:34:26.019Z,23.27
2019-05-22T11:35:25.988Z,23.14
2019-05-22T11:36:26.047Z,22.99
2019-05-22T11:37:36.063Z,22.94
2019-05-22T11:38:25.950Z,22.90
2019-05-22T11:39:38.586Z,22.90
2019-05-22T11:40:26.924Z,22.78
2019-05-22T11:41:25.911Z,22.74
2019-05-22T11:42:25.915Z,22.71
2019-05-22T11:43:25.913Z,22.69
2019-05-22T11:44:25.895Z,22.68
2019-05-22T11:45:25.879Z,22.71
2019-05-22T11:46:25.880Z,22.75
2019-05-22T11:47:25.866Z,22.77
2019-05-22T11:48:25.861Z,22.77
2019-05-22T11:49:25.837Z,22.74
2019-05-22T11:50:25.834Z,22.80
2019-05-22T11:51:25.813Z,22.89
2019-05-22T11:52:25.795Z,23.07
2019-05-22T11:53:25.796Z,23.17
2019-05-22T11:54:25.778Z,23.22
2019-05-22T11:55:42.606Z,23.08
2019-05-22T11:56:26.745Z,23.08
2019-05-22T11:57:25.733Z,23.12
2019-05-22T11:58:25.743Z,23.14
2019-05-22T11:59:25.750Z,23.15
2019-05-22T12:00:25.705Z,23.19
2019-05-22T12:01:25.685Z,23.15
2019-05-22T12:02:25.696Z,23.04
2019-05-22T12:03:25.695Z,23.01
2019-05-22T12:04:25.685Z,22.97
2019-05-22T12:05:25.657Z,23.04
2019-05-22T12:06:25.651Z,23.08
2019-05-22T12:07:25.632Z,23.05
2019-05-22T12:08:37.409Z,23.04
2019-05-22T12:09:25.610Z,22.97
2019-05-22T12:10:25.617Z,22.90
2019-05-22T12:11:25.579Z,22.89
2019-05-22T12:12:25.578Z,22.92
2019-05-22T12:13:25.599Z,22.99
2019-05-22T12:14:25.568Z,23.01
2019-05-22T12:15:25.579Z,23.09
2019-05-22T12:16:25.541Z,23.23
2019-05-22T12:17:37.663Z,23.34
2019-05-22T12:18:26.503Z,23.39
2019-05-22T12:19:25.527Z,23.45
2019-05-22T12:20:25.504Z,23.50
2019-05-22T12:21:25.522Z,23.57
2019-05-22T12:22:25.508Z,23.61
2019-05-22T12:23:25.474Z,23.65
2019-05-22T12:24:29.316Z,23.70
2019-05-22T12:25:26.482Z,23.64
2019-05-22T12:26:25.508Z,23.40
2019-05-22T12:27:25.414Z,23.26
2019-05-22T12:28:25.407Z,23.23
2019-05-22T12:29:25.386Z,23.17
2019-05-22T12:30:25.379Z,23.17
2019-05-22T12:31:25.366Z,23.14
2019-05-22T12:32:25.399Z,23.12
2019-05-22T12:33:25.340Z,23.17
2019-05-22T12:34:25.408Z,23.24
2019-05-22T12:35:25.331Z,23.35
2019-05-22T12:36:25.315Z,23.43
2019-05-22T12:37:25.300Z,23.47
2019-05-22T12:38:27.063Z,23.43
2019-05-22T12:39:36.287Z,23.40
2019-05-22T12:40:25.272Z,23.42
2019-05-22T12:41:25.250Z,23.50
2019-05-22T12:42:25.274Z,23.55
2019-05-22T12:43:25.231Z,23.60
2019-05-22T12:44:25.233Z,23.67
2019-05-22T12:45:25.227Z,23.72
2019-05-22T12:46:25.200Z,23.75
2019-05-22T12:47:25.201Z,23.68
2019-05-22T12:48:25.200Z,23.64
2019-05-22T12:49:25.185Z,23.55
2019-05-22T12:50:25.277Z,23.46
2019-05-22T12:51:25.143Z,23.45
2019-05-22T12:52:25.146Z,23.40
2019-05-22T12:53:25.134Z,23.40
2019-05-22T12:54:25.126Z,23.47